Time;durP1;ratioP1;P1;durP2;ratioP2;P2;SDS_P1;SDS_P2;PMS_P1;PMS_P2;Temp;Humidity;BMP_temperature;BMP_pressure;BME280_temperature;BME280_humidity;BME280_pressure;Samples;Min_cycle;Max_cycle;Signal;HPM_P1;HPM_P2
2024/01/09 00:00:01;;;;;;;5.03;3.08;;;;;;;;;;4998367;28;95271;-62
2024/01/09 00:02:27;;;;;;;5.90;3.20;;;;;;;;;;5000935;28;92978;-63
2024/01/09 00:04:54;;;;;;;4.60;3.17;;;;;;;;;;5001094;28;93493;-62
2024/01/09 00:07:20;;;;;;;6.57;3.40;;;;;;;;;;4998000;28;96961;-62
2024/01/09 00:09:47;;;;;;;7.80;3.42;;;;;;;;;;4992211;28;92888;-62
2024/01/09 00:12:14;;;;;;;4.90;3.28;;;;;;;;;;5002033;28;93065;-62
2024/01/09 00:14:40;;;;;;;6.78;3.60;;;;;;;;;;4996952;28;95070;-62
2024/01/09 00:17:07;;;;;;;4.95;3.05;;;;;;;;;;5000274;28;93450;-64
2024/01/09 00:19:34;;;;;;;4.70;2.90;;;;;;;;;;5002740;28;93522;-62
2024/01/09 00:22:00;;;;;;;5.25;3.15;;;;;;;;;;5001879;28;92548;-69
2024/01/09 00:24:27;;;;;;;5.45;3.00;;;;;;;;;;5001571;28;93004;-69
2024/01/09 00:26:53;;;;;;;6.68;3.10;;;;;;;;;;5004324;28;94550;-69
2024/01/09 00:29:20;;;;;;;4.68;3.20;;;;;;;;;;4993693;28;92569;-68
2024/01/09 00:31:46;;;;;;;5.20;2.80;;;;;;;;;;5000766;28;94746;-69
2024/01/09 00:34:12;;;;;;;7.40;3.53;;;;;;;;;;4999590;28;93418;-69
2024/01/09 00:36:45;;;;;;;4.63;3.22;;;;;;;;;;5003838;28;92490;-69
2024/01/09 00:39:11;;;;;;;6.28;2.90;;;;;;;;;;5000356;28;93429;-69
2024/01/09 00:41:38;;;;;;;4.53;2.88;;;;;;;;;;4999585;28;92543;-69
2024/01/09 00:44:04;;;;;;;5.28;3.25;;;;;;;;;;5001482;28;93554;-69
2024/01/09 00:46:31;;;;;;;6.10;2.88;;;;;;;;;;4994850;28;94416;-69
2024/01/09 00:48:57;;;;;;;6.60;3.30;;;;;;;;;;5004177;28;91730;-69
2024/01/09 00:51:23;;;;;;;4.68;3.13;;;;;;;;;;5004068;28;93428;-68
2024/01/09 00:53:51;;;;;;;4.75;2.63;;;;;;;;;;5003044;28;93452;-69
2024/01/09 00:56:18;;;;;;;6.53;3.20;;;;;;;;;;5008507;28;95460;-67
2024/01/09 00:58:44;;;;;;;5.30;3.17;;;;;;;;;;5004341;28;93413;-69
2024/01/09 01:01:10;;;;;;;3.78;3.15;;;;;;;;;;5003556;28;92519;-69
2024/01/09 01:03:37;;;;;;;5.07;2.85;;;;;;;;;;5001273;28;93217;-69
2024/01/09 01:06:03;;;;;;;7.63;2.83;;;;;;;;;;4999853;28;94180;-69
2024/01/09 01:08:30;;;;;;;4.65;2.95;;;;;;;;;;5006352;28;92617;-68
2024/01/09 01:10:56;;;;;;;5.13;3.42;;;;;;;;;;5001154;28;93696;-69
2024/01/09 01:13:22;;;;;;;6.95;3.20;;;;;;;;;;4998253;28;92749;-68
2024/01/09 01:15:49;;;;;;;4.45;3.08;;;;;;;;;;5004184;28;92562;-69
2024/01/09 01:18:15;;;;;;;4.30;3.15;;;;;;;;;;5004707;28;93134;-69
2024/01/09 01:20:42;;;;;;;8.27;3.20;;;;;;;;;;5001712;28;94919;-69
2024/01/09 01:23:08;;;;;;;4.32;2.88;;;;;;;;;;5005285;28;95912;-69
2024/01/09 01:25:34;;;;;;;5.03;2.70;;;;;;;;;;5001418;28;93677;-66
2024/01/09 01:28:01;;;;;;;3.97;2.55;;;;;;;;;;5002030;28;92580;-68
2024/01/09 01:30:27;;;;;;;4.78;2.70;;;;;;;;;;5006929;28;92459;-68
2024/01/09 01:32:54;;;;;;;4.40;3.13;;;;;;;;;;4998829;28;93437;-67
2024/01/09 01:35:20;;;;;;;6.95;2.95;;;;;;;;;;5006164;28;92513;-68
2024/01/09 01:37:46;;;;;;;7.03;3.33;;;;;;;;;;5003715;28;93216;-67
2024/01/09 01:40:13;;;;;;;4.53;2.50;;;;;;;;;;5007211;28;93470;-68
2024/01/09 01:42:39;;;;;;;4.30;3.03;;;;;;;;;;4998131;28;93454;-68
2024/01/09 01:45:13;;;;;;;6.75;2.67;;;;;;;;;;5001199;28;96791;-68
2024/01/09 01:47:40;;;;;;;5.65;3.33;;;;;;;;;;4995128;28;92800;-66
2024/01/09 01:50:06;;;;;;;5.35;3.05;;;;;;;;;;5001391;28;93164;-67
2024/01/09 01:52:33;;;;;;;5.20;3.35;;;;;;;;;;5001761;28;93710;-67
2024/01/09 01:54:59;;;;;;;4.70;3.35;;;;;;;;;;5006615;28;92761;-66
2024/01/09 01:57:26;;;;;;;5.13;3.00;;;;;;;;;;5003411;28;93069;-67
2024/01/09 01:59:53;;;;;;;4.68;3.10;;;;;;;;;;5000911;28;93520;-68
2024/01/09 02:02:20;;;;;;;4.22;2.88;;;;;;;;;;5007376;28;91771;-68
2024/01/09 02:04:46;;;;;;;8.63;3.20;;;;;;;;;;5001947;28;95454;-68
2024/01/09 02:07:13;;;;;;;4.10;2.97;;;;;;;;;;5003211;28;92533;-67
2024/01/09 02:09:39;;;;;;;6.40;3.17;;;;;;;;;;5001948;28;94729;-67
2024/01/09 02:12:06;;;;;;;6.55;3.22;;;;;;;;;;5001562;28;94588;-67
2024/01/09 02:14:33;;;;;;;4.53;2.50;;;;;;;;;;5001651;28;92811;-68
2024/01/09 02:16:59;;;;;;;6.10;2.65;;;;;;;;;;5002636;28;93848;-68
2024/01/09 02:19:26;;;;;;;5.93;2.67;;;;;;;;;;4999996;28;93355;-67
2024/01/09 02:21:52;;;;;;;4.95;3.00;;;;;;;;;;5001185;28;92574;-68
2024/01/09 02:24:19;;;;;;;5.47;3.40;;;;;;;;;;5004663;28;92566;-68
2024/01/09 02:26:48;;;;;;;5.07;2.90;;;;;;;;;;5004429;28;92620;-68
2024/01/09 02:29:32;;;;;;;7.10;3.10;;;;;;;;;;4994904;28;92596;-68
2024/01/09 02:31:59;;;;;;;7.30;3.33;;;;;;;;;;5001233;28;93460;-68
2024/01/09 02:34:27;;;;;;;6.43;2.72;;;;;;;;;;4996011;28;94836;-67
2024/01/09 02:36:53;;;;;;;6.80;3.10;;;;;;;;;;5001899;28;96028;-68
2024/01/09 02:39:20;;;;;;;5.07;3.08;;;;;;;;;;5003885;28;93303;-67
2024/01/09 02:41:46;;;;;;;5.28;2.97;;;;;;;;;;4998185;28;92911;-67
2024/01/09 02:44:13;;;;;;;6.72;3.63;;;;;;;;;;5004410;28;92546;-68
2024/01/09 02:46:39;;;;;;;7.40;3.67;;;;;;;;;;5003282;28;93840;-67
2024/01/09 02:49:05;;;;;;;7.65;3.15;;;;;;;;;;4999327;28;93185;-67
2024/01/09 02:51:32;;;;;;;4.38;2.80;;;;;;;;;;4999728;28;92757;-66
2024/01/09 02:53:58;;;;;;;6.18;3.55;;;;;;;;;;5005663;28;92387;-68
2024/01/09 02:56:25;;;;;;;7.18;3.25;;;;;;;;;;5002891;28;93443;-67
2024/01/09 02:58:51;;;;;;;4.30;3.30;;;;;;;;;;4997419;28;96292;-68
2024/01/09 03:01:17;;;;;;;7.68;3.50;;;;;;;;;;5003198;28;92714;-68
2024/01/09 03:03:44;;;;;;;6.05;3.25;;;;;;;;;;5001134;28;95781;-67
2024/01/09 03:06:10;;;;;;;9.15;3.30;;;;;;;;;;5005153;28;94052;-67
2024/01/09 03:08:37;;;;;;;8.25;3.58;;;;;;;;;;5003122;28;93118;-68
2024/01/09 03:11:03;;;;;;;4.13;2.67;;;;;;;;;;4996422;28;95268;-67
2024/01/09 03:13:30;;;;;;;8.13;3.88;;;;;;;;;;5000926;28;92428;-67
2024/01/09 03:15:56;;;;;;;5.72;3.30;;;;;;;;;;5002235;28;93453;-68
2024/01/09 03:18:23;;;;;;;5.85;3.60;;;;;;;;;;4996542;28;95615;-67
2024/01/09 03:20:50;;;;;;;8.15;3.45;;;;;;;;;;4999910;28;92438;-68
2024/01/09 03:23:16;;;;;;;7.20;3.53;;;;;;;;;;5001095;28;95639;-67
2024/01/09 03:25:42;;;;;;;7.95;3.20;;;;;;;;;;5002485;28;93306;-68
2024/01/09 03:28:09;;;;;;;4.95;3.30;;;;;;;;;;5004907;28;92499;-67
2024/01/09 03:30:35;;;;;;;5.03;3.60;;;;;;;;;;5000768;28;93427;-68
2024/01/09 03:33:02;;;;;;;6.03;3.60;;;;;;;;;;5001299;28;92452;-68
2024/01/09 03:35:28;;;;;;;7.88;3.10;;;;;;;;;;4996614;28;95147;-67
2024/01/09 03:37:55;;;;;;;4.53;3.45;;;;;;;;;;5000206;28;94569;-68
2024/01/09 03:40:21;;;;;;;5.72;3.28;;;;;;;;;;5002574;28;91963;-67
2024/01/09 03:42:47;;;;;;;5.13;3.30;;;;;;;;;;5002787;28;92967;-68
2024/01/09 03:45:14;;;;;;;5.97;3.83;;;;;;;;;;5001268;28;93685;-67
2024/01/09 03:47:40;;;;;;;4.13;2.78;;;;;;;;;;4993499;28;94937;-67
2024/01/09 03:50:07;;;;;;;6.78;3.78;;;;;;;;;;5006663;28;95724;-67
2024/01/09 03:52:33;;;;;;;4.25;3.08;;;;;;;;;;4997358;28;92441;-61
2024/01/09 03:55:00;;;;;;;4.88;3.53;;;;;;;;;;4997550;28;93249;-61
2024/01/09 03:57:26;;;;;;;6.65;3.40;;;;;;;;;;4999809;28;94711;-61
2024/01/09 03:59:52;;;;;;;6.38;3.67;;;;;;;;;;5001306;28;92549;-61
2024/01/09 04:02:19;;;;;;;5.22;3.67;;;;;;;;;;4999041;28;93438;-61
2024/01/09 04:04:45;;;;;;;6.78;3.50;;;;;;;;;;5003676;28;92775;-61
2024/01/09 04:07:11;;;;;;;7.07;3.28;;;;;;;;;;5001238;28;92591;-61
2024/01/09 04:09:38;;;;;;;4.97;3.22;;;;;;;;;;4998294;28;93054;-61
2024/01/09 04:12:04;;;;;;;9.65;3.53;;;;;;;;;;5001030;28;95824;-61
2024/01/09 04:14:31;;;;;;;10.77;3.55;;;;;;;;;;4996581;28;96477;-62
2024/01/09 04:17:00;;;;;;;6.50;3.75;;;;;;;;;;4994538;28;93772;-62
2024/01/09 04:19:26;;;;;;;4.05;2.97;;;;;;;;;;5003017;28;92503;-61
2024/01/09 04:21:53;;;;;;;6.50;3.55;;;;;;;;;;4998586;28;93180;-61
2024/01/09 04:24:19;;;;;;;5.43;3.17;;;;;;;;;;4997343;28;93448;-61
2024/01/09 04:26:45;;;;;;;4.43;2.88;;;;;;;;;;5005552;28;92810;-62
2024/01/09 04:29:12;;;;;;;5.20;3.20;;;;;;;;;;5003698;28;93145;-62
2024/01/09 04:31:38;;;;;;;5.68;3.20;;;;;;;;;;5003315;28;93444;-61
2024/01/09 04:34:05;;;;;;;7.75;3.88;;;;;;;;;;5006081;28;92522;-61
2024/01/09 04:36:31;;;;;;;5.93;3.65;;;;;;;;;;4995834;28;96309;-61
2024/01/09 04:38:59;;;;;;;5.97;3.97;;;;;;;;;;5008021;28;92650;-60
2024/01/09 04:41:25;;;;;;;6.07;3.95;;;;;;;;;;5003445;28;93117;-61
2024/01/09 04:43:52;;;;;;;6.88;3.50;;;;;;;;;;5003665;28;93951;-63
2024/01/09 04:46:18;;;;;;;5.68;3.45;;;;;;;;;;5004715;28;93683;-60
2024/01/09 04:48:44;;;;;;;6.13;3.45;;;;;;;;;;4996634;28;93201;-61
2024/01/09 04:51:11;;;;;;;6.30;3.38;;;;;;;;;;5002156;28;95031;-61
2024/01/09 04:53:37;;;;;;;5.60;3.30;;;;;;;;;;5004083;28;91754;-61
2024/01/09 04:56:04;;;;;;;5.72;3.40;;;;;;;;;;5008674;28;92778;-61
2024/01/09 04:58:30;;;;;;;5.75;3.55;;;;;;;;;;4999568;28;92577;-61
2024/01/09 05:00:56;;;;;;;5.13;3.30;;;;;;;;;;4999210;28;94785;-61
2024/01/09 05:03:23;;;;;;;5.70;3.70;;;;;;;;;;4999683;28;93396;-68
2024/01/09 05:05:50;;;;;;;7.22;3.70;;;;;;;;;;5000453;28;92664;-67
2024/01/09 05:08:17;;;;;;;8.77;3.50;;;;;;;;;;5005484;28;92944;-68
2024/01/09 05:10:44;;;;;;;5.95;3.90;;;;;;;;;;5001606;28;94342;-68
2024/01/09 05:13:10;;;;;;;6.45;3.45;;;;;;;;;;4998220;28;92569;-67
2024/01/09 05:15:36;;;;;;;4.88;3.08;;;;;;;;;;5004414;28;93542;-67
2024/01/09 05:18:03;;;;;;;7.55;3.42;;;;;;;;;;5006050;28;91833;-67
2024/01/09 05:20:30;;;;;;;8.35;3.83;;;;;;;;;;4999406;28;92779;-68
2024/01/09 05:22:56;;;;;;;5.30;3.65;;;;;;;;;;5003527;28;93744;-66
2024/01/09 05:25:22;;;;;;;5.80;3.45;;;;;;;;;;5001546;28;95094;-68
2024/01/09 05:27:49;;;;;;;6.32;3.70;;;;;;;;;;5002261;28;95461;-67
2024/01/09 05:30:15;;;;;;;7.07;3.58;;;;;;;;;;5004652;28;93593;-69
2024/01/09 05:32:41;;;;;;;5.65;3.75;;;;;;;;;;5006315;28;94174;-68
2024/01/09 05:35:09;;;;;;;6.68;3.45;;;;;;;;;;5002816;28;94886;-67
2024/01/09 05:37:36;;;;;;;5.55;3.45;;;;;;;;;;5004102;28;96505;-68
2024/01/09 05:40:03;;;;;;;6.78;3.60;;;;;;;;;;5000031;28;94803;-68
2024/01/09 05:42:30;;;;;;;4.95;3.42;;;;;;;;;;5004256;28;92536;-67
2024/01/09 05:44:56;;;;;;;7.95;4.10;;;;;;;;;;5003295;28;92481;-67
2024/01/09 05:47:22;;;;;;;5.57;3.70;;;;;;;;;;4999638;28;95067;-68
2024/01/09 05:49:49;;;;;;;7.20;3.22;;;;;;;;;;4998485;28;96445;-67
2024/01/09 05:52:15;;;;;;;5.13;3.40;;;;;;;;;;5004288;28;92646;-69
2024/01/09 05:54:45;;;;;;;6.57;3.53;;;;;;;;;;5001876;28;93104;-68
2024/01/09 05:57:12;;;;;;;8.98;3.83;;;;;;;;;;5001183;28;93436;-68
2024/01/09 05:59:38;;;;;;;8.10;3.80;;;;;;;;;;5003648;28;92520;-67
2024/01/09 06:02:05;;;;;;;9.88;3.58;;;;;;;;;;5005576;28;93548;-67
2024/01/09 06:04:31;;;;;;;7.28;3.80;;;;;;;;;;5002411;28;92527;-68
2024/01/09 06:06:57;;;;;;;6.65;4.00;;;;;;;;;;5002220;28;94491;-68
2024/01/09 06:09:24;;;;;;;6.85;3.80;;;;;;;;;;5006236;28;93688;-68
2024/01/09 06:11:50;;;;;;;5.85;3.60;;;;;;;;;;4999378;28;92408;-68
2024/01/09 06:14:17;;;;;;;5.32;3.47;;;;;;;;;;5002106;28;95126;-68
2024/01/09 06:16:43;;;;;;;7.57;3.58;;;;;;;;;;4998018;28;93880;-67
2024/01/09 06:19:10;;;;;;;7.55;3.90;;;;;;;;;;5005316;28;92325;-67
2024/01/09 06:21:36;;;;;;;6.28;3.65;;;;;;;;;;5005605;28;93102;-69
2024/01/09 06:24:03;;;;;;;5.45;3.53;;;;;;;;;;5006944;28;92514;-68
2024/01/09 06:26:29;;;;;;;5.13;3.47;;;;;;;;;;5001757;28;93574;-68
2024/01/09 06:28:56;;;;;;;7.65;4.07;;;;;;;;;;5002547;28;96129;-68
2024/01/09 06:31:22;;;;;;;5.50;3.50;;;;;;;;;;5004642;28;91665;-68
2024/01/09 06:33:48;;;;;;;6.90;3.80;;;;;;;;;;5003813;28;92747;-67
2024/01/09 06:36:15;;;;;;;5.65;3.72;;;;;;;;;;5002781;28;93399;-69
2024/01/09 06:38:42;;;;;;;6.75;3.63;;;;;;;;;;5001936;28;94871;-68
2024/01/09 06:41:08;;;;;;;9.13;4.03;;;;;;;;;;5000594;28;95496;-68
2024/01/09 06:43:34;;;;;;;8.15;3.92;;;;;;;;;;5003152;28;94212;-69
2024/01/09 06:46:01;;;;;;;8.38;4.50;;;;;;;;;;5000292;28;93066;-69
2024/01/09 06:48:27;;;;;;;4.82;3.38;;;;;;;;;;4993051;28;93426;-69
2024/01/09 06:50:54;;;;;;;6.10;4.03;;;;;;;;;;5002457;28;92591;-69
2024/01/09 06:53:20;;;;;;;8.75;4.25;;;;;;;;;;5000680;28;94431;-71
2024/01/09 06:55:47;;;;;;;12.50;4.40;;;;;;;;;;5000501;28;93010;-69
2024/01/09 06:58:16;;;;;;;5.53;3.72;;;;;;;;;;5000315;28;92432;-68
2024/01/09 07:00:43;;;;;;;6.15;3.80;;;;;;;;;;5005198;28;93841;-67
2024/01/09 07:03:10;;;;;;;6.65;4.10;;;;;;;;;;4996154;28;96348;-67
2024/01/09 07:05:36;;;;;;;5.93;3.88;;;;;;;;;;5000235;28;92443;-70
2024/01/09 07:08:03;;;;;;;7.97;4.55;;;;;;;;;;5001198;28;93510;-67
2024/01/09 07:10:29;;;;;;;5.75;3.83;;;;;;;;;;5000932;28;92689;-68
2024/01/09 07:12:56;;;;;;;5.38;3.90;;;;;;;;;;5000341;28;94813;-68
2024/01/09 07:15:22;;;;;;;6.55;4.05;;;;;;;;;;5000124;28;93418;-68
2024/01/09 07:17:49;;;;;;;7.50;3.75;;;;;;;;;;5000509;28;92575;-70
2024/01/09 07:20:16;;;;;;;7.03;4.20;;;;;;;;;;5002207;28;93208;-70
2024/01/09 07:22:42;;;;;;;13.18;4.40;;;;;;;;;;5002298;28;93145;-70
2024/01/09 07:25:14;;;;;;;4.75;3.33;;;;;;;;;;5000825;28;92572;-71
2024/01/09 07:27:40;;;;;;;7.07;4.28;;;;;;;;;;4998141;28;95938;-71
2024/01/09 07:30:07;;;;;;;5.47;4.03;;;;;;;;;;5000292;28;92466;-68
2024/01/09 07:32:34;;;;;;;16.15;4.57;;;;;;;;;;5001895;28;93173;-70
2024/01/09 07:35:00;;;;;;;6.53;4.00;;;;;;;;;;5001199;28;93944;-68
2024/01/09 07:37:27;;;;;;;11.32;4.00;;;;;;;;;;5006669;28;92843;-68
2024/01/09 07:39:53;;;;;;;4.93;3.63;;;;;;;;;;5003026;28;93214;-69
2024/01/09 07:42:20;;;;;;;4.43;3.35;;;;;;;;;;4998979;28;93452;-69
2024/01/09 07:44:46;;;;;;;5.35;3.40;;;;;;;;;;4999119;28;91751;-69
2024/01/09 07:47:13;;;;;;;8.13;4.53;;;;;;;;;;5000483;28;92541;-68
2024/01/09 07:49:39;;;;;;;6.90;3.75;;;;;;;;;;4996866;28;92447;-69
2024/01/09 07:52:06;;;;;;;7.50;3.95;;;;;;;;;;4998422;28;94900;-69
2024/01/09 07:54:32;;;;;;;7.43;3.33;;;;;;;;;;4999764;28;93516;-68
2024/01/09 07:57:00;;;;;;;7.63;3.40;;;;;;;;;;5002982;28;92413;-69
2024/01/09 07:59:26;;;;;;;6.03;3.60;;;;;;;;;;4997692;28;93385;-68
2024/01/09 08:01:56;;;;;;;5.30;3.65;;;;;;;;;;4998515;28;93485;-70
2024/01/09 08:04:23;;;;;;;7.82;4.30;;;;;;;;;;5006030;28;92412;-68
2024/01/09 08:06:50;;;;;;;5.55;3.75;;;;;;;;;;5003540;28;92378;-69
2024/01/09 08:09:17;;;;;;;7.43;3.97;;;;;;;;;;5006816;28;92732;-68
2024/01/09 08:11:44;;;;;;;5.97;3.55;;;;;;;;;;5003518;28;92689;-69
2024/01/09 08:14:11;;;;;;;6.30;3.90;;;;;;;;;;5004681;28;93485;-70
2024/01/09 08:16:37;;;;;;;9.18;3.90;;;;;;;;;;5002277;28;94914;-69
2024/01/09 08:19:04;;;;;;;6.82;3.35;;;;;;;;;;4993221;28;95530;-70
2024/01/09 08:21:31;;;;;;;5.97;3.80;;;;;;;;;;5033042;27;93417;-70
2024/01/09 08:23:57;;;;;;;8.90;4.10;;;;;;;;;;4999927;28;92546;-71
2024/01/09 08:26:24;;;;;;;6.80;4.00;;;;;;;;;;5000576;28;93265;-71
2024/01/09 08:28:50;;;;;;;5.70;3.53;;;;;;;;;;4999696;28;93780;-68
2024/01/09 08:31:17;;;;;;;6.53;3.28;;;;;;;;;;5008971;28;92620;-69
2024/01/09 08:33:43;;;;;;;7.55;4.13;;;;;;;;;;5003856;28;92723;-61
2024/01/09 08:36:11;;;;;;;8.20;3.85;;;;;;;;;;5007764;28;92429;-62
2024/01/09 08:38:38;;;;;;;6.05;3.38;;;;;;;;;;5001938;28;93097;-62
2024/01/09 08:41:05;;;;;;;6.00;4.07;;;;;;;;;;5003315;28;96892;-61
2024/01/09 08:43:31;;;;;;;5.22;3.53;;;;;;;;;;5002795;28;92446;-62
2024/01/09 08:45:58;;;;;;;6.57;3.67;;;;;;;;;;5002694;28;94322;-63
2024/01/09 08:48:24;;;;;;;6.00;3.63;;;;;;;;;;5004224;28;93706;-62
2024/01/09 08:50:51;;;;;;;8.43;4.20;;;;;;;;;;5004778;28;92596;-62
2024/01/09 08:53:17;;;;;;;6.32;3.75;;;;;;;;;;5007452;28;93151;-64
2024/01/09 08:55:44;;;;;;;7.72;3.65;;;;;;;;;;5003487;28;92632;-64
2024/01/09 08:58:10;;;;;;;5.82;3.42;;;;;;;;;;5001383;28;93104;-62
2024/01/09 09:00:36;;;;;;;7.32;4.05;;;;;;;;;;5004365;28;93656;-61
2024/01/09 09:03:03;;;;;;;5.65;3.30;;;;;;;;;;5002566;28;92690;-64
2024/01/09 09:05:30;;;;;;;6.75;3.70;;;;;;;;;;5001729;28;95070;-62
2024/01/09 09:07:59;;;;;;;6.07;4.15;;;;;;;;;;5005496;28;93639;-63
2024/01/09 09:10:25;;;;;;;6.15;3.40;;;;;;;;;;5004627;28;92814;-62
2024/01/09 09:12:51;;;;;;;4.72;3.58;;;;;;;;;;5006586;28;93464;-63
2024/01/09 09:15:18;;;;;;;4.70;3.40;;;;;;;;;;5002770;28;92401;-62
2024/01/09 09:17:44;;;;;;;6.15;3.45;;;;;;;;;;5000709;28;94172;-62
2024/01/09 09:20:11;;;;;;;7.20;4.10;;;;;;;;;;5002101;28;93708;-63
2024/01/09 09:22:38;;;;;;;6.05;3.40;;;;;;;;;;5006832;28;92285;-63
2024/01/09 09:25:08;;;;;;;5.50;3.38;;;;;;;;;;5002548;28;92562;-63
2024/01/09 09:27:34;;;;;;;7.78;4.15;;;;;;;;;;5001688;28;94594;-64
2024/01/09 09:30:02;;;;;;;7.43;3.67;;;;;;;;;;4997479;28;94873;-63
2024/01/09 09:32:28;;;;;;;11.05;3.33;;;;;;;;;;5005034;28;96573;-63
2024/01/09 09:34:55;;;;;;;6.05;3.05;;;;;;;;;;5005767;28;93657;-63
2024/01/09 09:37:21;;;;;;;4.53;3.05;;;;;;;;;;5003075;28;93284;-63
2024/01/09 09:39:48;;;;;;;7.50;3.72;;;;;;;;;;4998344;28;94445;-63
2024/01/09 09:42:14;;;;;;;6.07;2.92;;;;;;;;;;4999681;28;92517;-63
2024/01/09 09:44:42;;;;;;;5.30;3.33;;;;;;;;;;4996116;28;93278;-64
2024/01/09 09:47:09;;;;;;;7.68;3.80;;;;;;;;;;4996009;28;92778;-62
2024/01/09 09:49:37;;;;;;;6.80;3.22;;;;;;;;;;4996640;28;92737;-64
2024/01/09 09:52:05;;;;;;;6.72;3.33;;;;;;;;;;5003786;28;93148;-63
2024/01/09 09:54:32;;;;;;;4.60;3.40;;;;;;;;;;4999185;28;96191;-63
2024/01/09 09:56:58;;;;;;;4.65;3.08;;;;;;;;;;5002527;28;92409;-63
2024/01/09 09:59:25;;;;;;;7.45;4.20;;;;;;;;;;5001926;28;92512;-63
2024/01/09 10:01:52;;;;;;;10.23;6.03;;;;;;;;;;5005968;28;92412;-63
2024/01/09 10:04:41;;;;;;;10.55;3.83;;;;;;;;;;4996509;28;93707;-63
2024/01/09 10:07:07;;;;;;;8.68;3.53;;;;;;;;;;5004360;28;94696;-62
2024/01/09 10:09:35;;;;;;;5.22;3.38;;;;;;;;;;5001536;28;92571;-65
2024/01/09 10:12:01;;;;;;;6.55;3.40;;;;;;;;;;5000828;28;95599;-66
2024/01/09 10:14:28;;;;;;;7.28;3.35;;;;;;;;;;4996451;28;95979;-65
2024/01/09 10:16:55;;;;;;;6.90;3.70;;;;;;;;;;5001182;28;92962;-64
2024/01/09 10:19:27;;;;;;;4.30;3.30;;;;;;;;;;5000958;28;94858;-65
2024/01/09 10:21:53;;;;;;;6.50;3.47;;;;;;;;;;5000073;28;92836;-65
2024/01/09 10:24:19;;;;;;;4.50;3.30;;;;;;;;;;5002900;28;92759;-64
2024/01/09 10:26:49;;;;;;;7.90;3.40;;;;;;;;;;5009707;28;93466;-64
2024/01/09 10:29:16;;;;;;;4.68;2.92;;;;;;;;;;4998327;28;92511;-65
2024/01/09 10:31:44;;;;;;;4.60;3.10;;;;;;;;;;5004322;28;93277;-66
2024/01/09 10:34:11;;;;;;;3.90;3.03;;;;;;;;;;5002869;28;93490;-66
2024/01/09 10:36:38;;;;;;;4.68;3.25;;;;;;;;;;4998592;28;91837;-65
2024/01/09 10:39:05;;;;;;;8.00;3.28;;;;;;;;;;5003355;28;92348;-69
2024/01/09 10:41:32;;;;;;;3.97;3.10;;;;;;;;;;5000653;28;94587;-64
2024/01/09 10:43:59;;;;;;;3.63;2.88;;;;;;;;;;5000051;28;94830;-64
2024/01/09 10:46:26;;;;;;;4.65;3.03;;;;;;;;;;5001712;28;93411;-64
2024/01/09 10:48:55;;;;;;;6.82;2.90;;;;;;;;;;4998823;28;92448;-65
2024/01/09 10:51:22;;;;;;;3.00;2.58;;;;;;;;;;5002595;28;93332;-64
2024/01/09 10:53:50;;;;;;;3.85;2.97;;;;;;;;;;5002171;28;93383;-70
2024/01/09 10:56:18;;;;;;;4.55;2.83;;;;;;;;;;4998185;28;92462;-70
2024/01/09 10:58:48;;;;;;;22.95;3.08;;;;;;;;;;4995051;28;93105;-70
2024/01/09 11:01:14;;;;;;;4.10;2.53;;;;;;;;;;5001612;28;92663;-68
2024/01/09 11:03:44;;;;;;;8.65;3.22;;;;;;;;;;5003184;28;92639;-64
2024/01/09 11:06:14;;;;;;;3.35;2.47;;;;;;;;;;4997251;28;94515;-63
2024/01/09 11:08:43;;;;;;;3.83;2.80;;;;;;;;;;4998385;28;94862;-63
2024/01/09 11:11:12;;;;;;;4.07;2.88;;;;;;;;;;5000016;28;95954;-64
2024/01/09 11:13:40;;;;;;;5.25;2.85;;;;;;;;;;4993401;28;93455;-62
2024/01/09 11:16:08;;;;;;;4.50;2.90;;;;;;;;;;4998933;28;92543;-62
2024/01/09 11:18:35;;;;;;;4.18;2.65;;;;;;;;;;4990802;28;93606;-62
2024/01/09 11:21:02;;;;;;;3.78;2.78;;;;;;;;;;4993900;28;95739;-64
2024/01/09 11:23:41;;;;;;;4.30;2.42;;;;;;;;;;5005034;28;92670;-65
2024/01/09 11:26:07;;;;;;;2.70;2.25;;;;;;;;;;4994390;28;92639;-65
2024/01/09 11:28:37;;;;;;;3.10;2.60;;;;;;;;;;5002129;28;92341;-66
2024/01/09 11:31:06;;;;;;;2.92;2.22;;;;;;;;;;5004390;28;93130;-63
2024/01/09 11:33:33;;;;;;;3.87;2.87;;;;;;;;;;5000479;28;95419;-64
2024/01/09 11:36:07;;;;;;;3.13;2.50;;;;;;;;;;5002126;28;92684;-63
2024/01/09 11:38:34;;;;;;;2.97;2.67;;;;;;;;;;4998495;28;93191;-64
2024/01/09 11:41:09;;;;;;;4.00;2.60;;;;;;;;;;5003337;28;92496;-64
2024/01/09 11:43:54;;;;;;;3.65;2.60;;;;;;;;;;5002546;28;92514;-64
2024/01/09 11:46:22;;;;;;;4.13;2.50;;;;;;;;;;5001896;28;93061;-63
2024/01/09 11:48:48;;;;;;;8.40;2.60;;;;;;;;;;4999871;28;92529;-63
2024/01/09 11:51:15;;;;;;;3.10;2.45;;;;;;;;;;4997583;28;94150;-63
2024/01/09 11:53:41;;;;;;;4.03;2.65;;;;;;;;;;5000906;28;92694;-62
2024/01/09 11:56:12;;;;;;;3.33;2.78;;;;;;;;;;5001544;28;92483;-64
2024/01/09 11:58:38;;;;;;;3.60;2.70;;;;;;;;;;4996764;28;95194;-64
2024/01/09 12:01:05;;;;;;;3.90;2.70;;;;;;;;;;4998579;28;92462;-63
2024/01/09 12:03:34;;;;;;;3.03;2.50;;;;;;;;;;5003782;28;92539;-62
2024/01/09 12:06:02;;;;;;;4.10;2.65;;;;;;;;;;5001319;28;94140;-70
2024/01/09 12:08:31;;;;;;;3.47;2.20;;;;;;;;;;5001767;28;93759;-70
2024/01/09 12:10:58;;;;;;;4.07;2.78;;;;;;;;;;5002955;28;93143;-72
2024/01/09 12:13:24;;;;;;;5.68;2.70;;;;;;;;;;5001014;28;94038;-70
2024/01/09 12:15:51;;;;;;;3.22;2.58;;;;;;;;;;4991844;28;93179;-68
2024/01/09 12:18:17;;;;;;;5.30;2.95;;;;;;;;;;4995806;28;92553;-70
2024/01/09 12:20:44;;;;;;;3.80;2.38;;;;;;;;;;4993448;28;93554;-69
2024/01/09 12:23:11;;;;;;;3.20;2.10;;;;;;;;;;4996656;28;95636;-68
2024/01/09 12:25:38;;;;;;;3.85;2.40;;;;;;;;;;4994554;28;95481;-68
2024/01/09 12:28:05;;;;;;;8.48;2.20;;;;;;;;;;5000583;28;93828;-69
2024/01/09 12:30:32;;;;;;;2.58;2.25;;;;;;;;;;5003951;28;92458;-68
2024/01/09 12:32:59;;;;;;;2.88;2.13;;;;;;;;;;5003488;28;93686;-69
2024/01/09 12:35:25;;;;;;;5.85;2.85;;;;;;;;;;4994692;28;92445;-68
2024/01/09 12:37:52;;;;;;;2.83;2.15;;;;;;;;;;5003392;28;93036;-69
2024/01/09 12:40:18;;;;;;;3.47;2.50;;;;;;;;;;5001682;28;92668;-69
2024/01/09 12:42:45;;;;;;;4.38;2.40;;;;;;;;;;4999310;28;92446;-69
2024/01/09 12:45:12;;;;;;;2.20;2.00;;;;;;;;;;4999769;28;93416;-70
2024/01/09 12:47:38;;;;;;;3.38;2.45;;;;;;;;;;5003704;28;97218;-69
2024/01/09 12:50:05;;;;;;;2.90;2.50;;;;;;;;;;5006173;28;92597;-70
2024/01/09 12:52:32;;;;;;;5.40;2.75;;;;;;;;;;5004902;28;93462;-69
2024/01/09 12:55:00;;;;;;;3.97;2.50;;;;;;;;;;5003275;28;92774;-70
2024/01/09 12:57:30;;;;;;;2.13;1.92;;;;;;;;;;5006570;28;93555;-69
2024/01/09 12:59:56;;;;;;;3.90;2.45;;;;;;;;;;5003476;28;93524;-69
2024/01/09 13:02:23;;;;;;;3.05;2.20;;;;;;;;;;5006550;28;92569;-69
2024/01/09 13:04:50;;;;;;;2.97;2.67;;;;;;;;;;5003434;28;93190;-71
2024/01/09 13:07:18;;;;;;;2.83;2.33;;;;;;;;;;5003526;28;93970;-71
2024/01/09 13:09:44;;;;;;;7.90;2.47;;;;;;;;;;5006101;28;92699;-71
2024/01/09 13:12:11;;;;;;;3.75;2.63;;;;;;;;;;5000855;28;94969;-70
2024/01/09 13:14:40;;;;;;;5.97;2.33;;;;;;;;;;5004404;28;93578;-70
2024/01/09 13:17:08;;;;;;;3.00;2.65;;;;;;;;;;5005190;28;94480;-70
2024/01/09 13:19:34;;;;;;;3.83;2.50;;;;;;;;;;5006604;28;94467;-70
2024/01/09 13:22:01;;;;;;;3.80;3.00;;;;;;;;;;5003555;28;92466;-71
2024/01/09 13:24:30;;;;;;;2.58;2.15;;;;;;;;;;5006404;28;92497;-70
2024/01/09 13:26:57;;;;;;;5.35;2.33;;;;;;;;;;5006296;28;93553;-70
2024/01/09 13:29:25;;;;;;;3.42;2.70;;;;;;;;;;5005652;28;91767;-70
2024/01/09 13:31:54;;;;;;;3.08;2.35;;;;;;;;;;5003108;28;93533;-71
2024/01/09 13:34:20;;;;;;;3.55;2.30;;;;;;;;;;5007876;28;93527;-71
2024/01/09 13:36:48;;;;;;;2.90;2.28;;;;;;;;;;5002234;28;94951;-71
2024/01/09 13:39:16;;;;;;;5.25;2.45;;;;;;;;;;5005572;28;93722;-71
2024/01/09 13:41:44;;;;;;;5.30;2.40;;;;;;;;;;5004390;28;92417;-71
2024/01/09 13:44:10;;;;;;;2.47;2.25;;;;;;;;;;5003661;28;93379;-71
2024/01/09 13:46:37;;;;;;;3.75;2.67;;;;;;;;;;5001917;28;93456;-69
2024/01/09 13:49:03;;;;;;;4.05;2.25;;;;;;;;;;5001975;28;92675;-70
2024/01/09 13:51:30;;;;;;;2.53;2.33;;;;;;;;;;5003036;28;93069;-70
2024/01/09 13:54:00;;;;;;;3.00;2.30;;;;;;;;;;5002849;28;93316;-71
2024/01/09 13:56:27;;;;;;;3.30;2.28;;;;;;;;;;5001756;28;92564;-71
2024/01/09 13:58:54;;;;;;;3.53;2.35;;;;;;;;;;5005324;28;93475;-71
2024/01/09 14:01:20;;;;;;;5.05;2.08;;;;;;;;;;5002551;28;95191;-70
2024/01/09 14:04:03;;;;;;;5.68;2.30;;;;;;;;;;4999867;28;96100;-70
2024/01/09 14:06:30;;;;;;;2.97;2.25;;;;;;;;;;4984190;28;93508;-70
2024/01/09 14:08:57;;;;;;;3.10;2.38;;;;;;;;;;5002599;28;92463;-70
2024/01/09 14:11:23;;;;;;;4.07;2.60;;;;;;;;;;5005485;28;93117;-70
2024/01/09 14:13:50;;;;;;;4.55;2.50;;;;;;;;;;5001933;28;93473;-70
2024/01/09 14:16:17;;;;;;;3.33;2.53;;;;;;;;;;5003342;28;92560;-70
2024/01/09 14:18:44;;;;;;;9.45;2.38;;;;;;;;;;5007196;28;92941;-70
2024/01/09 14:21:10;;;;;;;2.30;2.00;;;;;;;;;;5001856;28;92628;-70
2024/01/09 14:23:38;;;;;;;3.17;2.42;;;;;;;;;;5003390;28;92341;-70
2024/01/09 14:26:04;;;;;;;3.75;2.50;;;;;;;;;;5001498;28;96287;-70
2024/01/09 14:28:31;;;;;;;8.25;2.75;;;;;;;;;;5002090;28;92464;-71
2024/01/09 14:30:57;;;;;;;4.93;2.22;;;;;;;;;;4997402;28;94377;-70
2024/01/09 14:33:24;;;;;;;3.40;2.20;;;;;;;;;;5002034;28;93633;-70
2024/01/09 14:35:50;;;;;;;3.67;2.40;;;;;;;;;;5003011;28;92802;-70
2024/01/09 14:38:17;;;;;;;7.38;2.60;;;;;;;;;;5005823;28;92927;-70
2024/01/09 14:40:44;;;;;;;4.93;2.53;;;;;;;;;;5003956;28;93903;-71